sensor_id;sensor_type;location;lat;lon;timestamp;P1;durP1;ratioP1;P2;durP2;ratioP2
22320;SDS011;11328;53.928;18.522;2024-01-10T00:00:22;21.20;;;10.52;;
22320;SDS011;11328;53.928;18.522;2024-01-10T00:02:49;22.13;;;11.38;;
22320;SDS011;11328;53.928;18.522;2024-01-10T00:05:16;21.63;;;10.27;;
22320;SDS011;11328;53.928;18.522;2024-01-10T00:07:45;22.05;;;10.88;;
22320;SDS011;11328;53.928;18.522;2024-01-10T00:10:13;25.48;;;11.27;;
22320;SDS011;11328;53.928;18.522;2024-01-10T00:12:40;24.85;;;12.07;;
22320;SDS011;11328;53.928;18.522;2024-01-10T00:15:10;22.75;;;11.15;;
22320;SDS011;11328;53.928;18.522;2024-01-10T00:17:37;21.98;;;11.10;;
22320;SDS011;11328;53.928;18.522;2024-01-10T00:20:07;22.58;;;11.23;;
22320;SDS011;11328;53.928;18.522;2024-01-10T00:22:34;22.40;;;11.40;;
22320;SDS011;11328;53.928;18.522;2024-01-10T00:25:02;24.42;;;12.05;;
22320;SDS011;11328;53.928;18.522;2024-01-10T00:27:29;20.85;;;10.93;;
22320;SDS011;11328;53.928;18.522;2024-01-10T00:29:56;21.83;;;11.55;;
22320;SDS011;11328;53.928;18.522;2024-01-10T00:32:23;22.00;;;11.13;;
22320;SDS011;11328;53.928;18.522;2024-01-10T00:34:50;21.35;;;11.00;;
22320;SDS011;11328;53.928;18.522;2024-01-10T00:37:17;20.50;;;10.50;;
22320;SDS011;11328;53.928;18.522;2024-01-10T00:39:44;21.30;;;10.52;;
22320;SDS011;11328;53.928;18.522;2024-01-10T00:42:11;21.05;;;10.63;;
22320;SDS011;11328;53.928;18.522;2024-01-10T00:44:38;21.40;;;10.57;;
22320;SDS011;11328;53.928;18.522;2024-01-10T00:47:05;21.08;;;10.20;;
22320;SDS011;11328;53.928;18.522;2024-01-10T00:49:33;21.00;;;9.48;;
22320;SDS011;11328;53.928;18.522;2024-01-10T00:52:00;16.42;;;8.95;;
22320;SDS011;11328;53.928;18.522;2024-01-10T00:54:27;16.23;;;9.30;;
22320;SDS011;11328;53.928;18.522;2024-01-10T00:56:54;17.92;;;9.75;;
22320;SDS011;11328;53.928;18.522;2024-01-10T00:59:21;18.80;;;9.27;;
22320;SDS011;11328;53.928;18.522;2024-01-10T01:01:48;18.08;;;9.68;;
22320;SDS011;11328;53.928;18.522;2024-01-10T01:04:15;21.02;;;10.30;;
22320;SDS011;11328;53.928;18.522;2024-01-10T01:06:42;19.27;;;9.77;;
22320;SDS011;11328;53.928;18.522;2024-01-10T01:09:09;21.30;;;10.27;;
22320;SDS011;11328;53.928;18.522;2024-01-10T01:11:36;21.23;;;10.15;;
22320;SDS011;11328;53.928;18.522;2024-01-10T01:14:03;20.85;;;10.13;;
22320;SDS011;11328;53.928;18.522;2024-01-10T01:16:30;22.38;;;10.30;;
22320;SDS011;11328;53.928;18.522;2024-01-10T01:18:57;22.65;;;10.90;;
22320;SDS011;11328;53.928;18.522;2024-01-10T01:21:24;21.67;;;10.80;;
22320;SDS011;11328;53.928;18.522;2024-01-10T01:23:51;21.00;;;10.05;;
22320;SDS011;11328;53.928;18.522;2024-01-10T01:26:18;21.23;;;9.68;;
22320;SDS011;11328;53.928;18.522;2024-01-10T01:28:46;21.42;;;10.45;;
22320;SDS011;11328;53.928;18.522;2024-01-10T01:31:13;21.33;;;10.90;;
22320;SDS011;11328;53.928;18.522;2024-01-10T01:33:40;20.23;;;9.73;;
22320;SDS011;11328;53.928;18.522;2024-01-10T01:36:07;20.35;;;10.43;;
22320;SDS011;11328;53.928;18.522;2024-01-10T01:38:35;23.70;;;10.40;;
22320;SDS011;11328;53.928;18.522;2024-01-10T01:41:02;20.38;;;10.57;;
22320;SDS011;11328;53.928;18.522;2024-01-10T01:43:29;20.95;;;9.90;;
22320;SDS011;11328;53.928;18.522;2024-01-10T01:45:56;20.58;;;10.57;;
22320;SDS011;11328;53.928;18.522;2024-01-10T01:48:24;23.20;;;11.35;;
22320;SDS011;11328;53.928;18.522;2024-01-10T01:50:52;22.52;;;11.20;;
22320;SDS011;11328;53.928;18.522;2024-01-10T01:53:26;21.08;;;10.88;;
22320;SDS011;11328;53.928;18.522;2024-01-10T01:55:55;21.48;;;11.23;;
22320;SDS011;11328;53.928;18.522;2024-01-10T01:58:25;20.17;;;11.30;;
22320;SDS011;11328;53.928;18.522;2024-01-10T02:00:52;21.55;;;11.50;;
22320;SDS011;11328;53.928;18.522;2024-01-10T02:03:20;22.65;;;10.95;;
22320;SDS011;11328;53.928;18.522;2024-01-10T02:05:48;24.88;;;12.07;;
22320;SDS011;11328;53.928;18.522;2024-01-10T02:08:15;21.55;;;11.55;;
22320;SDS011;11328;53.928;18.522;2024-01-10T02:10:42;22.98;;;11.57;;
22320;SDS011;11328;53.928;18.522;2024-01-10T02:13:10;22.63;;;11.60;;
22320;SDS011;11328;53.928;18.522;2024-01-10T02:15:37;21.88;;;11.20;;
22320;SDS011;11328;53.928;18.522;2024-01-10T02:18:05;24.73;;;12.07;;
22320;SDS011;11328;53.928;18.522;2024-01-10T02:20:32;20.48;;;10.80;;
22320;SDS011;11328;53.928;18.522;2024-01-10T02:23:00;19.42;;;10.75;;
22320;SDS011;11328;53.928;18.522;2024-01-10T02:25:27;22.73;;;11.48;;
22320;SDS011;11328;53.928;18.522;2024-01-10T02:27:54;24.98;;;11.23;;
22320;SDS011;11328;53.928;18.522;2024-01-10T02:30:21;20.67;;;9.88;;
22320;SDS011;11328;53.928;18.522;2024-01-10T02:32:48;20.92;;;9.82;;
22320;SDS011;11328;53.928;18.522;2024-01-10T02:35:15;20.95;;;10.98;;
22320;SDS011;11328;53.928;18.522;2024-01-10T02:37:42;22.27;;;10.90;;
22320;SDS011;11328;53.928;18.522;2024-01-10T02:40:09;19.95;;;10.07;;
22320;SDS011;11328;53.928;18.522;2024-01-10T02:42:37;20.13;;;10.55;;
22320;SDS011;11328;53.928;18.522;2024-01-10T02:45:05;18.50;;;9.98;;
22320;SDS011;11328;53.928;18.522;2024-01-10T02:47:33;21.23;;;10.50;;
22320;SDS011;11328;53.928;18.522;2024-01-10T02:50:00;19.63;;;10.93;;
22320;SDS011;11328;53.928;18.522;2024-01-10T02:52:27;20.95;;;10.23;;
22320;SDS011;11328;53.928;18.522;2024-01-10T02:54:54;19.83;;;10.32;;
22320;SDS011;11328;53.928;18.522;2024-01-10T02:57:21;20.15;;;10.05;;
22320;SDS011;11328;53.928;18.522;2024-01-10T02:59:48;22.15;;;12.20;;
22320;SDS011;11328;53.928;18.522;2024-01-10T03:02:15;20.70;;;11.18;;
22320;SDS011;11328;53.928;18.522;2024-01-10T03:04:42;20.63;;;10.43;;
22320;SDS011;11328;53.928;18.522;2024-01-10T03:07:10;20.67;;;11.10;;
22320;SDS011;11328;53.928;18.522;2024-01-10T03:09:37;18.90;;;10.35;;
22320;SDS011;11328;53.928;18.522;2024-01-10T03:12:04;19.23;;;9.80;;
22320;SDS011;11328;53.928;18.522;2024-01-10T03:14:32;17.23;;;9.57;;
22320;SDS011;11328;53.928;18.522;2024-01-10T03:17:00;17.10;;;9.25;;
22320;SDS011;11328;53.928;18.522;2024-01-10T03:19:27;15.10;;;8.75;;
22320;SDS011;11328;53.928;18.522;2024-01-10T03:21:54;17.65;;;9.32;;
22320;SDS011;11328;53.928;18.522;2024-01-10T03:24:21;15.95;;;9.05;;
22320;SDS011;11328;53.928;18.522;2024-01-10T03:26:50;17.10;;;9.05;;
22320;SDS011;11328;53.928;18.522;2024-01-10T03:29:17;19.40;;;8.75;;
22320;SDS011;11328;53.928;18.522;2024-01-10T03:31:44;16.17;;;9.20;;
22320;SDS011;11328;53.928;18.522;2024-01-10T03:34:11;17.05;;;9.45;;
22320;SDS011;11328;53.928;18.522;2024-01-10T03:36:38;17.95;;;9.00;;
22320;SDS011;11328;53.928;18.522;2024-01-10T03:39:05;16.20;;;9.27;;
22320;SDS011;11328;53.928;18.522;2024-01-10T03:41:32;17.55;;;9.10;;
22320;SDS011;11328;53.928;18.522;2024-01-10T03:43:59;16.80;;;9.98;;
22320;SDS011;11328;53.928;18.522;2024-01-10T03:46:26;16.90;;;9.80;;
22320;SDS011;11328;53.928;18.522;2024-01-10T03:48:53;18.52;;;8.95;;
22320;SDS011;11328;53.928;18.522;2024-01-10T03:51:20;19.55;;;10.00;;
22320;SDS011;11328;53.928;18.522;2024-01-10T03:53:49;17.92;;;8.85;;
22320;SDS011;11328;53.928;18.522;2024-01-10T03:56:17;16.05;;;9.35;;
22320;SDS011;11328;53.928;18.522;2024-01-10T03:58:44;17.25;;;9.65;;
22320;SDS011;11328;53.928;18.522;2024-01-10T04:01:11;17.17;;;9.95;;
22320;SDS011;11328;53.928;18.522;2024-01-10T04:03:39;16.88;;;9.30;;
22320;SDS011;11328;53.928;18.522;2024-01-10T04:06:10;17.30;;;8.95;;
22320;SDS011;11328;53.928;18.522;2024-01-10T04:08:37;16.63;;;9.82;;
22320;SDS011;11328;53.928;18.522;2024-01-10T04:11:04;15.82;;;9.55;;
22320;SDS011;11328;53.928;18.522;2024-01-10T04:13:31;17.95;;;10.85;;
22320;SDS011;11328;53.928;18.522;2024-01-10T04:15:58;19.13;;;11.15;;
22320;SDS011;11328;53.928;18.522;2024-01-10T04:18:25;19.42;;;10.65;;
22320;SDS011;11328;53.928;18.522;2024-01-10T04:20:52;17.45;;;10.80;;
22320;SDS011;11328;53.928;18.522;2024-01-10T04:23:20;21.00;;;11.00;;
22320;SDS011;11328;53.928;18.522;2024-01-10T04:25:47;19.35;;;10.45;;
22320;SDS011;11328;53.928;18.522;2024-01-10T04:28:14;19.75;;;10.32;;
22320;SDS011;11328;53.928;18.522;2024-01-10T04:30:41;19.23;;;10.82;;
22320;SDS011;11328;53.928;18.522;2024-01-10T04:33:08;19.10;;;9.70;;
22320;SDS011;11328;53.928;18.522;2024-01-10T04:35:35;19.88;;;11.02;;
22320;SDS011;11328;53.928;18.522;2024-01-10T04:38:02;19.00;;;10.60;;
22320;SDS011;11328;53.928;18.522;2024-01-10T04:40:29;21.27;;;11.13;;
22320;SDS011;11328;53.928;18.522;2024-01-10T04:42:56;19.63;;;11.00;;
22320;SDS011;11328;53.928;18.522;2024-01-10T04:45:23;20.30;;;11.10;;
22320;SDS011;11328;53.928;18.522;2024-01-10T04:47:50;19.02;;;10.77;;
22320;SDS011;11328;53.928;18.522;2024-01-10T04:50:17;22.48;;;11.93;;
22320;SDS011;11328;53.928;18.522;2024-01-10T04:52:44;23.80;;;11.63;;
22320;SDS011;11328;53.928;18.522;2024-01-10T04:55:11;21.80;;;12.60;;
22320;SDS011;11328;53.928;18.522;2024-01-10T04:57:38;20.77;;;11.35;;
22320;SDS011;11328;53.928;18.522;2024-01-10T05:00:05;21.17;;;11.63;;
22320;SDS011;11328;53.928;18.522;2024-01-10T05:02:33;19.95;;;11.30;;
22320;SDS011;11328;53.928;18.522;2024-01-10T05:05:00;20.88;;;12.27;;
22320;SDS011;11328;53.928;18.522;2024-01-10T05:07:27;19.15;;;10.60;;
22320;SDS011;11328;53.928;18.522;2024-01-10T05:09:54;18.13;;;9.93;;
22320;SDS011;11328;53.928;18.522;2024-01-10T05:12:22;20.67;;;10.48;;
22320;SDS011;11328;53.928;18.522;2024-01-10T05:14:49;18.73;;;10.93;;
22320;SDS011;11328;53.928;18.522;2024-01-10T05:17:16;24.27;;;12.23;;
22320;SDS011;11328;53.928;18.522;2024-01-10T05:19:43;20.92;;;11.35;;
22320;SDS011;11328;53.928;18.522;2024-01-10T05:22:11;21.02;;;12.10;;
22320;SDS011;11328;53.928;18.522;2024-01-10T05:24:39;24.02;;;12.25;;
22320;SDS011;11328;53.928;18.522;2024-01-10T05:27:05;21.95;;;11.88;;
22320;SDS011;11328;53.928;18.522;2024-01-10T05:29:33;23.33;;;11.65;;
22320;SDS011;11328;53.928;18.522;2024-01-10T05:32:00;24.80;;;12.45;;
22320;SDS011;11328;53.928;18.522;2024-01-10T05:34:27;23.35;;;12.02;;
22320;SDS011;11328;53.928;18.522;2024-01-10T05:36:54;23.60;;;11.85;;
22320;SDS011;11328;53.928;18.522;2024-01-10T05:39:21;20.38;;;10.70;;
22320;SDS011;11328;53.928;18.522;2024-01-10T05:41:48;23.00;;;12.23;;
22320;SDS011;11328;53.928;18.522;2024-01-10T05:44:16;19.83;;;10.80;;
22320;SDS011;11328;53.928;18.522;2024-01-10T05:46:44;19.30;;;11.02;;
22320;SDS011;11328;53.928;18.522;2024-01-10T05:49:11;20.33;;;11.13;;
22320;SDS011;11328;53.928;18.522;2024-01-10T05:51:38;23.52;;;11.43;;
22320;SDS011;11328;53.928;18.522;2024-01-10T05:54:05;19.38;;;11.48;;
22320;SDS011;11328;53.928;18.522;2024-01-10T05:56:33;17.60;;;9.77;;
22320;SDS011;11328;53.928;18.522;2024-01-10T05:59:00;21.40;;;11.57;;
22320;SDS011;11328;53.928;18.522;2024-01-10T06:01:27;21.80;;;11.90;;
22320;SDS011;11328;53.928;18.522;2024-01-10T06:03:55;20.10;;;11.40;;
22320;SDS011;11328;53.928;18.522;2024-01-10T06:06:22;24.77;;;13.50;;
22320;SDS011;11328;53.928;18.522;2024-01-10T06:08:50;23.15;;;13.77;;
22320;SDS011;11328;53.928;18.522;2024-01-10T06:11:17;23.33;;;13.63;;
22320;SDS011;11328;53.928;18.522;2024-01-10T06:13:44;20.92;;;10.88;;
22320;SDS011;11328;53.928;18.522;2024-01-10T06:16:22;21.27;;;11.73;;
22320;SDS011;11328;53.928;18.522;2024-01-10T06:18:49;18.77;;;10.93;;
22320;SDS011;11328;53.928;18.522;2024-01-10T06:21:16;22.20;;;12.00;;
22320;SDS011;11328;53.928;18.522;2024-01-10T06:23:43;23.00;;;11.85;;
22320;SDS011;11328;53.928;18.522;2024-01-10T06:26:10;19.40;;;11.38;;
22320;SDS011;11328;53.928;18.522;2024-01-10T06:28:37;21.38;;;11.45;;
22320;SDS011;11328;53.928;18.522;2024-01-10T06:31:05;19.65;;;10.05;;
22320;SDS011;11328;53.928;18.522;2024-01-10T06:33:37;21.33;;;11.02;;
22320;SDS011;11328;53.928;18.522;2024-01-10T06:36:04;19.88;;;10.50;;
22320;SDS011;11328;53.928;18.522;2024-01-10T06:38:31;20.38;;;10.77;;
22320;SDS011;11328;53.928;18.522;2024-01-10T06:40:58;19.13;;;10.57;;
22320;SDS011;11328;53.928;18.522;2024-01-10T06:43:25;22.05;;;11.65;;
22320;SDS011;11328;53.928;18.522;2024-01-10T06:45:52;21.45;;;11.00;;
22320;SDS011;11328;53.928;18.522;2024-01-10T06:48:19;20.17;;;11.43;;
22320;SDS011;11328;53.928;18.522;2024-01-10T06:50:46;19.35;;;10.90;;
22320;SDS011;11328;53.928;18.522;2024-01-10T06:53:13;19.70;;;11.10;;
22320;SDS011;11328;53.928;18.522;2024-01-10T06:55:40;19.92;;;11.02;;
22320;SDS011;11328;53.928;18.522;2024-01-10T06:58:07;19.73;;;10.18;;
22320;SDS011;11328;53.928;18.522;2024-01-10T07:00:34;20.30;;;10.32;;
22320;SDS011;11328;53.928;18.522;2024-01-10T07:03:02;18.35;;;9.85;;
22320;SDS011;11328;53.928;18.522;2024-01-10T07:05:30;16.77;;;9.07;;
22320;SDS011;11328;53.928;18.522;2024-01-10T07:07:58;17.88;;;9.50;;
22320;SDS011;11328;53.928;18.522;2024-01-10T07:10:29;19.45;;;10.52;;
22320;SDS011;11328;53.928;18.522;2024-01-10T07:12:56;19.63;;;11.52;;
22320;SDS011;11328;53.928;18.522;2024-01-10T07:15:23;19.33;;;11.05;;
22320;SDS011;11328;53.928;18.522;2024-01-10T07:17:50;22.92;;;12.70;;
22320;SDS011;11328;53.928;18.522;2024-01-10T07:20:17;20.75;;;11.57;;
22320;SDS011;11328;53.928;18.522;2024-01-10T07:22:44;19.58;;;11.23;;
22320;SDS011;11328;53.928;18.522;2024-01-10T07:25:11;23.65;;;12.90;;
22320;SDS011;11328;53.928;18.522;2024-01-10T07:27:41;18.25;;;10.77;;
22320;SDS011;11328;53.928;18.522;2024-01-10T07:30:08;23.35;;;11.63;;
22320;SDS011;11328;53.928;18.522;2024-01-10T07:32:42;17.95;;;10.20;;
22320;SDS011;11328;53.928;18.522;2024-01-10T07:35:11;17.30;;;10.15;;
22320;SDS011;11328;53.928;18.522;2024-01-10T07:37:42;20.25;;;10.75;;
22320;SDS011;11328;53.928;18.522;2024-01-10T07:40:10;20.63;;;11.77;;
22320;SDS011;11328;53.928;18.522;2024-01-10T07:42:39;20.80;;;11.88;;
22320;SDS011;11328;53.928;18.522;2024-01-10T07:45:06;24.42;;;13.18;;
22320;SDS011;11328;53.928;18.522;2024-01-10T07:47:35;20.20;;;12.30;;
22320;SDS011;11328;53.928;18.522;2024-01-10T07:50:06;20.75;;;12.55;;
22320;SDS011;11328;53.928;18.522;2024-01-10T07:52:39;21.52;;;11.68;;
22320;SDS011;11328;53.928;18.522;2024-01-10T07:55:06;21.35;;;12.05;;
22320;SDS011;11328;53.928;18.522;2024-01-10T07:57:35;19.75;;;11.55;;
22320;SDS011;11328;53.928;18.522;2024-01-10T08:00:05;20.02;;;11.02;;
22320;SDS011;11328;53.928;18.522;2024-01-10T08:02:37;20.92;;;11.52;;
22320;SDS011;11328;53.928;18.522;2024-01-10T08:05:06;21.98;;;12.13;;
22320;SDS011;11328;53.928;18.522;2024-01-10T08:07:37;21.48;;;11.52;;
22320;SDS011;11328;53.928;18.522;2024-01-10T08:10:06;21.95;;;11.88;;
22320;SDS011;11328;53.928;18.522;2024-01-10T08:12:39;24.40;;;12.48;;
22320;SDS011;11328;53.928;18.522;2024-01-10T08:15:09;19.55;;;11.60;;
22320;SDS011;11328;53.928;18.522;2024-01-10T08:17:37;24.30;;;12.25;;
22320;SDS011;11328;53.928;18.522;2024-01-10T08:20:05;20.05;;;11.60;;
22320;SDS011;11328;53.928;18.522;2024-01-10T08:22:35;20.88;;;12.05;;
22320;SDS011;11328;53.928;18.522;2024-01-10T08:25:02;21.70;;;11.70;;
22320;SDS011;11328;53.928;18.522;2024-01-10T08:27:29;20.77;;;11.82;;
22320;SDS011;11328;53.928;18.522;2024-01-10T08:29:56;22.80;;;10.95;;
22320;SDS011;11328;53.928;18.522;2024-01-10T08:32:23;19.65;;;10.35;;
22320;SDS011;11328;53.928;18.522;2024-01-10T08:34:50;20.42;;;11.30;;
22320;SDS011;11328;53.928;18.522;2024-01-10T08:37:17;21.70;;;11.82;;
22320;SDS011;11328;53.928;18.522;2024-01-10T08:39:44;21.77;;;12.43;;
22320;SDS011;11328;53.928;18.522;2024-01-10T08:42:11;21.77;;;11.52;;
22320;SDS011;11328;53.928;18.522;2024-01-10T08:44:38;23.60;;;12.07;;
22320;SDS011;11328;53.928;18.522;2024-01-10T08:47:05;21.52;;;12.35;;
22320;SDS011;11328;53.928;18.522;2024-01-10T08:49:32;20.92;;;11.75;;
22320;SDS011;11328;53.928;18.522;2024-01-10T08:51:59;24.10;;;13.07;;
22320;SDS011;11328;53.928;18.522;2024-01-10T08:54:27;32.45;;;16.83;;
22320;SDS011;11328;53.928;18.522;2024-01-10T08:56:55;26.08;;;15.07;;
22320;SDS011;11328;53.928;18.522;2024-01-10T08:59:22;36.50;;;20.10;;
22320;SDS011;11328;53.928;18.522;2024-01-10T09:01:49;66.32;;;36.28;;
22320;SDS011;11328;53.928;18.522;2024-01-10T09:04:16;91.85;;;44.40;;
22320;SDS011;11328;53.928;18.522;2024-01-10T09:06:43;55.05;;;28.05;;
22320;SDS011;11328;53.928;18.522;2024-01-10T09:09:10;36.50;;;23.67;;
22320;SDS011;11328;53.928;18.522;2024-01-10T09:11:39;25.67;;;14.80;;
22320;SDS011;11328;53.928;18.522;2024-01-10T09:14:08;21.55;;;12.70;;
22320;SDS011;11328;53.928;18.522;2024-01-10T09:16:35;25.85;;;15.07;;
22320;SDS011;11328;53.928;18.522;2024-01-10T09:19:02;25.85;;;15.20;;
22320;SDS011;11328;53.928;18.522;2024-01-10T09:21:30;22.38;;;13.13;;
22320;SDS011;11328;53.928;18.522;2024-01-10T09:23:57;25.73;;;16.15;;
22320;SDS011;11328;53.928;18.522;2024-01-10T09:26:25;27.90;;;16.70;;
22320;SDS011;11328;53.928;18.522;2024-01-10T09:28:52;27.08;;;15.35;;
22320;SDS011;11328;53.928;18.522;2024-01-10T09:31:19;26.13;;;14.73;;
22320;SDS011;11328;53.928;18.522;2024-01-10T09:33:46;26.25;;;14.40;;
22320;SDS011;11328;53.928;18.522;2024-01-10T09:36:13;24.85;;;14.98;;
22320;SDS011;11328;53.928;18.522;2024-01-10T09:38:41;25.80;;;14.07;;
22320;SDS011;11328;53.928;18.522;2024-01-10T09:41:08;24.30;;;13.88;;
22320;SDS011;11328;53.928;18.522;2024-01-10T09:43:38;22.08;;;13.20;;
22320;SDS011;11328;53.928;18.522;2024-01-10T09:46:06;21.83;;;13.20;;
22320;SDS011;11328;53.928;18.522;2024-01-10T09:48:34;23.15;;;13.52;;
22320;SDS011;11328;53.928;18.522;2024-01-10T09:51:01;22.00;;;13.27;;
22320;SDS011;11328;53.928;18.522;2024-01-10T09:53:28;22.90;;;12.77;;
22320;SDS011;11328;53.928;18.522;2024-01-10T09:56:03;22.67;;;13.10;;
22320;SDS011;11328;53.928;18.522;2024-01-10T09:58:31;23.27;;;12.93;;
22320;SDS011;11328;53.928;18.522;2024-01-10T10:01:05;23.80;;;13.13;;
22320;SDS011;11328;53.928;18.522;2024-01-10T10:03:34;24.73;;;13.55;;
22320;SDS011;11328;53.928;18.522;2024-01-10T10:06:04;23.33;;;12.57;;
22320;SDS011;11328;53.928;18.522;2024-01-10T10:08:38;24.65;;;12.82;;
22320;SDS011;11328;53.928;18.522;2024-01-10T10:11:17;22.70;;;12.88;;
22320;SDS011;11328;53.928;18.522;2024-01-10T10:13:44;20.67;;;11.65;;
22320;SDS011;11328;53.928;18.522;2024-01-10T10:16:11;57.33;;;28.90;;
22320;SDS011;11328;53.928;18.522;2024-01-10T10:18:39;43.67;;;22.17;;
22320;SDS011;11328;53.928;18.522;2024-01-10T10:21:09;22.77;;;13.55;;
22320;SDS011;11328;53.928;18.522;2024-01-10T10:23:40;21.33;;;12.32;;
22320;SDS011;11328;53.928;18.522;2024-01-10T10:26:10;21.90;;;12.57;;
22320;SDS011;11328;53.928;18.522;2024-01-10T10:28:40;27.15;;;14.65;;
22320;SDS011;11328;53.928;18.522;2024-01-10T10:31:08;22.65;;;12.25;;
22320;SDS011;11328;53.928;18.522;2024-01-10T10:33:36;25.23;;;13.18;;
22320;SDS011;11328;53.928;18.522;2024-01-10T10:36:04;20.33;;;11.80;;
22320;SDS011;11328;53.928;18.522;2024-01-10T10:38:32;19.60;;;11.60;;
22320;SDS011;11328;53.928;18.522;2024-01-10T10:41:01;19.02;;;10.52;;
22320;SDS011;11328;53.928;18.522;2024-01-10T10:43:37;18.38;;;10.43;;
22320;SDS011;11328;53.928;18.522;2024-01-10T10:46:07;18.80;;;11.02;;
22320;SDS011;11328;53.928;18.522;2024-01-10T10:48:40;18.60;;;11.23;;
22320;SDS011;11328;53.928;18.522;2024-01-10T10:51:16;18.60;;;10.63;;
22320;SDS011;11328;53.928;18.522;2024-01-10T10:53:54;19.98;;;10.80;;
22320;SDS011;11328;53.928;18.522;2024-01-10T10:56:28;20.50;;;10.98;;
22320;SDS011;11328;53.928;18.522;2024-01-10T10:59:00;18.40;;;10.57;;
22320;SDS011;11328;53.928;18.522;2024-01-10T11:01:29;21.27;;;10.20;;
22320;SDS011;11328;53.928;18.522;2024-01-10T11:03:59;17.65;;;10.43;;
22320;SDS011;11328;53.928;18.522;2024-01-10T11:06:26;19.25;;;10.40;;
22320;SDS011;11328;53.928;18.522;2024-01-10T11:08:57;18.50;;;10.63;;
22320;SDS011;11328;53.928;18.522;2024-01-10T11:17:40;36.30;;;18.88;;
22320;SDS011;11328;53.928;18.522;2024-01-10T11:26:07;16.40;;;9.60;;
22320;SDS011;11328;53.928;18.522;2024-01-10T11:28:35;20.08;;;12.15;;
22320;SDS011;11328;53.928;18.522;2024-01-10T11:31:06;18.80;;;10.60;;
22320;SDS011;11328;53.928;18.522;2024-01-10T11:33:38;17.58;;;10.82;;
22320;SDS011;11328;53.928;18.522;2024-01-10T11:36:18;19.02;;;10.77;;
22320;SDS011;11328;53.928;18.522;2024-01-10T11:38:53;20.85;;;11.45;;
22320;SDS011;11328;53.928;18.522;2024-01-10T11:41:31;16.48;;;9.32;;
22320;SDS011;11328;53.928;18.522;2024-01-10T11:46:40;20.02;;;11.63;;
22320;SDS011;11328;53.928;18.522;2024-01-10T11:49:09;19.80;;;11.88;;
22320;SDS011;11328;53.928;18.522;2024-01-10T11:51:44;20.65;;;11.85;;
22320;SDS011;11328;53.928;18.522;2024-01-10T11:57:21;19.83;;;12.00;;
22320;SDS011;11328;53.928;18.522;2024-01-10T11:59:52;19.13;;;11.23;;
22320;SDS011;11328;53.928;18.522;2024-01-10T12:02:22;17.88;;;9.93;;
22320;SDS011;11328;53.928;18.522;2024-01-10T12:04:55;17.67;;;10.98;;
22320;SDS011;11328;53.928;18.522;2024-01-10T12:07:23;20.38;;;12.15;;
22320;SDS011;11328;53.928;18.522;2024-01-10T12:09:51;16.35;;;9.13;;
22320;SDS011;11328;53.928;18.522;2024-01-10T12:12:19;18.27;;;10.02;;
22320;SDS011;11328;53.928;18.522;2024-01-10T12:14:46;18.58;;;9.98;;
22320;SDS011;11328;53.928;18.522;2024-01-10T12:17:13;18.10;;;10.05;;
22320;SDS011;11328;53.928;18.522;2024-01-10T12:19:41;17.50;;;9.80;;
22320;SDS011;11328;53.928;18.522;2024-01-10T12:22:12;17.02;;;10.00;;
22320;SDS011;11328;53.928;18.522;2024-01-10T12:24:44;17.40;;;9.93;;
22320;SDS011;11328;53.928;18.522;2024-01-10T12:27:17;15.73;;;9.95;;
22320;SDS011;11328;53.928;18.522;2024-01-10T12:29:49;16.58;;;10.52;;
22320;SDS011;11328;53.928;18.522;2024-01-10T12:32:19;16.30;;;9.83;;
22320;SDS011;11328;53.928;18.522;2024-01-10T12:34:54;19.70;;;10.30;;
22320;SDS011;11328;53.928;18.522;2024-01-10T12:37:26;17.40;;;10.40;;
22320;SDS011;11328;53.928;18.522;2024-01-10T12:39:57;18.83;;;10.40;;
22320;SDS011;11328;53.928;18.522;2024-01-10T12:42:26;17.45;;;11.05;;
22320;SDS011;11328;53.928;18.522;2024-01-10T12:44:53;18.83;;;11.40;;
22320;SDS011;11328;53.928;18.522;2024-01-10T12:47:21;20.08;;;11.77;;
22320;SDS011;11328;53.928;18.522;2024-01-10T12:49:51;31.70;;;17.13;;
22320;SDS011;11328;53.928;18.522;2024-01-10T12:52:18;60.72;;;33.40;;
22320;SDS011;11328;53.928;18.522;2024-01-10T12:54:50;39.22;;;20.83;;
22320;SDS011;11328;53.928;18.522;2024-01-10T12:57:19;28.67;;;16.65;;
22320;SDS011;11328;53.928;18.522;2024-01-10T12:59:46;28.58;;;17.17;;
22320;SDS011;11328;53.928;18.522;2024-01-10T13:02:13;22.05;;;13.32;;
22320;SDS011;11328;53.928;18.522;2024-01-10T13:04:40;25.45;;;13.38;;
22320;SDS011;11328;53.928;18.522;2024-01-10T13:07:07;18.48;;;10.90;;
22320;SDS011;11328;53.928;18.522;2024-01-10T13:09:34;22.65;;;12.05;;
22320;SDS011;11328;53.928;18.522;2024-01-10T13:12:03;26.77;;;14.45;;
22320;SDS011;11328;53.928;18.522;2024-01-10T13:14:31;27.65;;;13.48;;
22320;SDS011;11328;53.928;18.522;2024-01-10T13:16:59;22.95;;;11.95;;
22320;SDS011;11328;53.928;18.522;2024-01-10T13:19:26;21.38;;;11.95;;
22320;SDS011;11328;53.928;18.522;2024-01-10T13:21:54;17.48;;;11.63;;
22320;SDS011;11328;53.928;18.522;2024-01-10T13:24:21;18.58;;;11.52;;
22320;SDS011;11328;53.928;18.522;2024-01-10T13:26:48;21.17;;;11.52;;
22320;SDS011;11328;53.928;18.522;2024-01-10T13:29:16;23.23;;;12.75;;
22320;SDS011;11328;53.928;18.522;2024-01-10T13:31:43;19.25;;;11.95;;
22320;SDS011;11328;53.928;18.522;2024-01-10T13:34:10;69.25;;;31.35;;
22320;SDS011;11328;53.928;18.522;2024-01-10T13:36:38;93.63;;;38.97;;
22320;SDS011;11328;53.928;18.522;2024-01-10T13:39:05;27.98;;;15.98;;
22320;SDS011;11328;53.928;18.522;2024-01-10T13:41:33;24.52;;;14.13;;
22320;SDS011;11328;53.928;18.522;2024-01-10T13:44:00;22.92;;;15.20;;
22320;SDS011;11328;53.928;18.522;2024-01-10T13:46:27;24.05;;;16.63;;
22320;SDS011;11328;53.928;18.522;2024-01-10T13:48:54;22.25;;;13.20;;
22320;SDS011;11328;53.928;18.522;2024-01-10T13:51:21;19.92;;;13.82;;
22320;SDS011;11328;53.928;18.522;2024-01-10T13:53:48;18.60;;;11.82;;
22320;SDS011;11328;53.928;18.522;2024-01-10T13:56:16;18.50;;;11.02;;
22320;SDS011;11328;53.928;18.522;2024-01-10T13:58:43;21.48;;;12.23;;
22320;SDS011;11328;53.928;18.522;2024-01-10T14:01:10;21.92;;;12.70;;
22320;SDS011;11328;53.928;18.522;2024-01-10T14:03:37;21.77;;;12.43;;
22320;SDS011;11328;53.928;18.522;2024-01-10T14:06:04;21.65;;;13.05;;
22320;SDS011;11328;53.928;18.522;2024-01-10T14:08:33;21.65;;;13.85;;
22320;SDS011;11328;53.928;18.522;2024-01-10T14:11:00;21.92;;;13.75;;
22320;SDS011;11328;53.928;18.522;2024-01-10T14:13:27;23.42;;;13.30;;
22320;SDS011;11328;53.928;18.522;2024-01-10T14:15:54;20.63;;;11.65;;
22320;SDS011;11328;53.928;18.522;2024-01-10T14:18:21;18.30;;;11.05;;
22320;SDS011;11328;53.928;18.522;2024-01-10T14:20:49;18.60;;;12.00;;
22320;SDS011;11328;53.928;18.522;2024-01-10T14:23:16;17.48;;;10.82;;
22320;SDS011;11328;53.928;18.522;2024-01-10T14:25:45;18.63;;;10.90;;
22320;SDS011;11328;53.928;18.522;2024-01-10T14:28:12;18.48;;;12.02;;
22320;SDS011;11328;53.928;18.522;2024-01-10T14:30:39;21.30;;;12.07;;
22320;SDS011;11328;53.928;18.522;2024-01-10T14:33:07;19.02;;;10.90;;